Pagrindinis puslapis
METAR-TAF:

METAR-TAF

Oro uostai :

Budė, Norvegija

platuma: 67-16N, ilguma: 014-22E, Aukštis: 1 m

Dabartinis oras

Ataskaita buvo paskelbta 16 minutes, ne 09:50 UTC
Vėjas 10 kt iš Rytų/Pietryčių
Temperatūra 12°C
Drėgmė 67%
Slėgis 1003 hPa
Matomumas 10 km arba daugiau
Mažai debesys ne aukštis 4200 ft
Su prošvaistėmis ne aukštis 7200 ft

METAR: ENBO 020950Z 11010KT 9999 FEW042 BKN072 12/06 Q1003 NOSIG

Laikas: 12:06 (10:06 UTC)

Prognozė

Prognozė galioja nuo 02 metu 06 UTC su 03 metu 06 UTC
Vėjas 10 kt iš Rytų
Matomumas 10 km arba daugiau
Mažai debesys ne aukštis 2500 ft
Su prošvaistėmis ne aukštis 4000 ft
Tapsmas
nuo 02 metu 12 UTC su 02 metu 14 UTC
Vėjas 8 kt iš Pietų/Pietvakarių
Tapsmas
nuo 02 metu 21 UTC su 02 metu 23 UTC
Vėjas 10 kt iš Rytų

TAF: ENBO 0206/0306 10010KT 9999 FEW025 BKN040 BECMG 0212/0214 21008KT BECMG 0221/0223 10010KT

Orai ataskaitas ir orų prognozės (METAR, TAF).

turimą stotys yra geltonos ir raudonos taškus žemėlapyje.

Perkelti pele per norėdami pamatyti stoties vardą.

Tada spustelėkite, norėdami matyti oro stebėjimo ir prognozės.

Norėdami pakeisti žemėlapį: spustelėkite ant žalios mygtukų su juodo kryžiaus žemyn,; žalią mygtuką su brūkšneliu, jei norite nutolinti; arba žalių rodyklių gretimoms žemėlapius.


METAR-TAF: